WXM80 ListenWXM80 Stop

You find our weather info also at:

UK Metoffice

WeatherCloud

Weather Underground

Northeastern Weather Network

AWEKAS

Citizen Weather Observer Program (CWOP)

HAMweather, WeatherForYou, PWS Weather


Weather Underground History page Text

Daily Summary for March 1, 2017 Units:  Both    English   Metric
« Previous Day
Next Day »
Daily Weekly Monthly Yearly Custom
  High: Low: Average:
Temperature: 62.0 °F /  16.7 °C 52.2 °F /  11.2 °C 56.4 °F /  13.6 °C
Dew Point: 58.4 °F /  14.7 °C 50.8 °F /  10.4 °C 53.9 °F /  12.2 °C
Humidity: 97 % 78 % 92 %
Wind Speed: 10.1 mph /  16.3 km/h - 3.9 mph /  6.3 km/h
Wind Gust: 18.4 mph /  29.6 km/h - -
Wind:- - SSW
Pressure: 29.97 in /  1014.8 hPa 29.37 in /  994.5 hPa -
Precipitation: 0.03 in /  0.76 mm    
Historical Graphs
 
 
Tabular Data for March 1, 2017
Time Temperature Dew Point Pressure Wind Wind Speed Wind Gust Humidity Rainfall Rate (Hourly)
00:00 52.2 °F /  11.2 °C 50.8 °F /  10.4 °C 29.97 in /  1014.8 hPa SSW 1.1 mph /  1.8 km/h 5.8 mph /  9.3 km/h 95 % 0.00 in /  0 mm
00:05 52.3 °F /  11.3 °C 50.9 °F /  10.5 °C 29.97 in /  1014.8 hPa South 2.0 mph /  3.2 km/h 4.6 mph /  7.4 km/h 95 % 0.00 in /  0 mm
00:10 52.4 °F /  11.3 °C 51.0 °F /  10.6 °C 29.96 in /  1014.4 hPa SSW 0.5 mph /  0.8 km/h 4.6 mph /  7.4 km/h 95 % 0.00 in /  0 mm
00:15 52.4 °F /  11.3 °C 51.0 °F /  10.6 °C 29.96 in /  1014.4 hPa South 3.2 mph /  5.1 km/h 6.9 mph /  11.1 km/h 95 % 0.00 in /  0 mm
00:20 52.5 °F /  11.4 °C 51.1 °F /  10.6 °C 29.95 in /  1014.1 hPa SSW 4.1 mph /  6.6 km/h 8.1 mph /  13 km/h 95 % 0.00 in /  0 mm
00:25 52.6 °F /  11.4 °C 51.2 °F /  10.7 °C 29.95 in /  1014.1 hPa SSW 2.4 mph /  3.9 km/h 7.0 mph /  11.3 km/h 95 % 0.00 in /  0 mm
00:30 52.7 °F /  11.5 °C 51.3 °F /  10.7 °C 29.95 in /  1014.1 hPa SSE 3.5 mph /  5.6 km/h 5.8 mph /  9.3 km/h 95 % 0.00 in /  0 mm
00:36 52.8 °F /  11.6 °C 51.4 °F /  10.8 °C 29.94 in /  1013.8 hPa South 3.7 mph /  6 km/h 6.9 mph /  11.1 km/h 95 % 0.00 in /  0 mm
00:41 52.8 °F /  11.6 °C 51.4 °F /  10.8 °C 29.94 in /  1013.8 hPa South 3.3 mph /  5.3 km/h 5.8 mph /  9.3 km/h 95 % 0.00 in /  0 mm
00:46 53.0 °F /  11.7 °C 51.6 °F /  10.9 °C 29.94 in /  1013.8 hPa SSE 2.8 mph /  4.5 km/h 5.8 mph /  9.3 km/h 95 % 0.00 in /  0 mm
00:51 53.0 °F /  11.7 °C 51.6 °F /  10.9 °C 29.94 in /  1013.8 hPa South 1.4 mph /  2.3 km/h 5.8 mph /  9.3 km/h 95 % 0.00 in /  0 mm
00:56 53.1 °F /  11.7 °C 51.7 °F /  10.9 °C 29.94 in /  1013.8 hPa South 1.8 mph /  2.9 km/h 6.0 mph /  9.7 km/h 95 % 0.00 in /  0 mm
00:57 53.2 °F /  11.8 °C 51.8 °F /  11 °C 29.94 in /  1013.8 hPa South 3.3 mph /  5.3 km/h 6.9 mph /  11.1 km/h 95 % 0.00 in /  0 mm
01:02 53.2 °F /  11.8 °C 51.8 °F /  11 °C 29.93 in /  1013.4 hPa South 4.1 mph /  6.6 km/h 5.8 mph /  9.3 km/h 95 % 0.00 in /  0 mm
01:07 53.3 °F /  11.8 °C 51.9 °F /  11.1 °C 29.93 in /  1013.4 hPa SSW 2.9 mph /  4.7 km/h 5.8 mph /  9.3 km/h 95 % 0.00 in /  0 mm
01:12 53.3 °F /  11.8 °C 51.9 °F /  11.1 °C 29.93 in /  1013.4 hPa SSE 5.6 mph /  9 km/h 9.2 mph /  14.8 km/h 95 % 0.00 in /  0 mm
01:17 53.3 °F /  11.8 °C 51.9 °F /  11.1 °C 29.93 in /  1013.4 hPa SSW 5.0 mph /  8 km/h 10.4 mph /  16.7 km/h 95 % 0.00 in /  0 mm
01:22 53.3 °F /  11.8 °C 51.9 °F /  11.1 °C 29.93 in /  1013.4 hPa SSW 4.5 mph /  7.2 km/h 11.5 mph /  18.5 km/h 95 % 0.00 in /  0 mm
01:27 53.3 °F /  11.8 °C 51.9 °F /  11.1 °C 29.93 in /  1013.4 hPa SSW 2.4 mph /  3.9 km/h 5.8 mph /  9.3 km/h 95 % 0.00 in /  0 mm
01:32 53.4 °F /  11.9 °C 52.0 °F /  11.1 °C 29.92 in /  1013.1 hPa SSW 4.9 mph /  7.9 km/h 10.4 mph /  16.7 km/h 95 % 0.00 in /  0 mm
01:37 53.4 °F /  11.9 °C 52.0 °F /  11.1 °C 29.92 in /  1013.1 hPa SSW 3.3 mph /  5.3 km/h 8.1 mph /  13 km/h 95 % 0.00 in /  0 mm
01:43 53.5 °F /  11.9 °C 52.1 °F /  11.2 °C 29.92 in /  1013.1 hPa SSW 4.4 mph /  7.1 km/h 10.4 mph /  16.7 km/h 95 % 0.00 in /  0 mm
01:48 53.5 °F /  11.9 °C 52.1 °F /  11.2 °C 29.92 in /  1013.1 hPa SSW 4.0 mph /  6.4 km/h 5.8 mph /  9.3 km/h 95 % 0.00 in /  0 mm
01:53 53.6 °F /  12 °C 52.2 °F /  11.2 °C 29.91 in /  1012.8 hPa South 3.9 mph /  6.3 km/h 5.8 mph /  9.3 km/h 95 % 0.00 in /  0 mm
01:58 53.6 °F /  12 °C 52.2 °F /  11.2 °C 29.92 in /  1013.1 hPa WSW 6.4 mph /  10.3 km/h 9.0 mph /  14.5 km/h 95 % 0.00 in /  0 mm
02:03 53.7 °F /  12.1 °C 52.3 °F /  11.3 °C 29.91 in /  1012.8 hPa SSW 6.0 mph /  9.7 km/h 13.0 mph /  20.9 km/h 95 % 0.00 in /  0 mm
02:08 53.8 °F /  12.1 °C 52.4 °F /  11.3 °C 29.91 in /  1012.8 hPa South 3.0 mph /  4.8 km/h 7.0 mph /  11.3 km/h 95 % 0.00 in /  0 mm
02:13 53.8 °F /  12.1 °C 52.4 °F /  11.3 °C 29.90 in /  1012.4 hPa SSW 3.0 mph /  4.8 km/h 9.0 mph /  14.5 km/h 95 % 0.00 in /  0 mm
02:18 53.9 °F /  12.2 °C 52.5 °F /  11.4 °C 29.90 in /  1012.4 hPa SSW 3.0 mph /  4.8 km/h 8.0 mph /  12.9 km/h 95 % 0.00 in /  0 mm
02:23 53.9 °F /  12.2 °C 52.5 °F /  11.4 °C 29.89 in /  1012.1 hPa South 5.0 mph /  8 km/h 9.0 mph /  14.5 km/h 95 % 0.00 in /  0 mm
02:28 53.9 °F /  12.2 °C 52.5 °F /  11.4 °C 29.88 in /  1011.7 hPa South 3.0 mph /  4.8 km/h 10.0 mph /  16.1 km/h 95 % 0.00 in /  0 mm
02:33 53.9 °F /  12.2 °C 52.5 °F /  11.4 °C 29.87 in /  1011.4 hPa South 6.0 mph /  9.7 km/h 13.0 mph /  20.9 km/h 95 % 0.00 in /  0 mm
02:38 53.9 °F /  12.2 °C 52.5 °F /  11.4 °C 29.87 in /  1011.4 hPa SSW 5.0 mph /  8 km/h 9.0 mph /  14.5 km/h 95 % 0.00 in /  0 mm
02:43 53.9 °F /  12.2 °C 52.5 °F /  11.4 °C 29.87 in /  1011.4 hPa South 3.0 mph /  4.8 km/h 9.0 mph /  14.5 km/h 95 % 0.00 in /  0 mm
02:48 53.9 °F /  12.2 °C 52.5 °F /  11.4 °C 29.86 in /  1011.1 hPa South 4.0 mph /  6.4 km/h 7.0 mph /  11.3 km/h 95 % 0.00 in /  0 mm
02:53 53.9 °F /  12.2 °C 52.5 °F /  11.4 °C 29.86 in /  1011.1 hPa South 3.0 mph /  4.8 km/h 12.0 mph /  19.3 km/h 95 % 0.00 in /  0 mm
02:58 53.9 °F /  12.2 °C 52.5 °F /  11.4 °C 29.85 in /  1010.7 hPa South 4.0 mph /  6.4 km/h 9.2 mph /  14.8 km/h 95 % 0.00 in /  0 mm
03:03 53.9 °F /  12.2 °C 52.8 °F /  11.6 °C 29.85 in /  1010.7 hPa SSE 3.7 mph /  6 km/h 11.5 mph /  18.5 km/h 96 % 0.00 in /  0 mm
03:08 53.9 °F /  12.2 °C 52.5 °F /  11.4 °C 29.85 in /  1010.7 hPa SSW 3.3 mph /  5.3 km/h 6.0 mph /  9.7 km/h 95 % 0.00 in /  0 mm
03:13 53.9 °F /  12.2 °C 52.5 °F /  11.4 °C 29.85 in /  1010.7 hPa SSW 3.0 mph /  4.8 km/h 8.1 mph /  13 km/h 95 % 0.00 in /  0 mm
03:18 53.9 °F /  12.2 °C 52.5 °F /  11.4 °C 29.84 in /  1010.4 hPa South 5.8 mph /  9.3 km/h 10.4 mph /  16.7 km/h 95 % 0.00 in /  0 mm
03:23 53.9 °F /  12.2 °C 52.8 °F /  11.6 °C 29.84 in /  1010.4 hPa South 1.5 mph /  2.4 km/h 8.1 mph /  13 km/h 96 % 0.00 in /  0 mm
03:28 54.0 °F /  12.2 °C 52.9 °F /  11.6 °C 29.84 in /  1010.4 hPa SSW 6.0 mph /  9.7 km/h 11.5 mph /  18.5 km/h 96 % 0.00 in /  0 mm
03:33 54.0 °F /  12.2 °C 52.9 °F /  11.6 °C 29.84 in /  1010.4 hPa SSW 4.9 mph /  7.9 km/h 8.1 mph /  13 km/h 96 % 0.00 in /  0 mm
03:38 54.0 °F /  12.2 °C 52.9 °F /  11.6 °C 29.84 in /  1010.4 hPa South 6.3 mph /  10.1 km/h 8.1 mph /  13 km/h 96 % 0.00 in /  0 mm
03:43 54.0 °F /  12.2 °C 52.9 °F /  11.6 °C 29.83 in /  1010 hPa South 3.8 mph /  6.1 km/h 10.4 mph /  16.7 km/h 96 % 0.00 in /  0 mm
03:48 54.1 °F /  12.3 °C 53.0 °F /  11.7 °C 29.84 in /  1010.4 hPa South 5.3 mph /  8.5 km/h 6.9 mph /  11.1 km/h 96 % 0.00 in /  0 mm
03:53 54.1 °F /  12.3 °C 53.0 °F /  11.7 °C 29.84 in /  1010.4 hPa South 2.6 mph /  4.2 km/h 5.8 mph /  9.3 km/h 96 % 0.00 in /  0 mm
03:58 54.1 °F /  12.3 °C 53.0 °F /  11.7 °C 29.84 in /  1010.4 hPa South 5.5 mph /  8.9 km/h 8.1 mph /  13 km/h 96 % 0.00 in /  0 mm
04:04 54.2 °F /  12.3 °C 53.1 °F /  11.7 °C 29.85 in /  1010.7 hPa SW 5.6 mph /  9 km/h 9.2 mph /  14.8 km/h 96 % 0.00 in /  0 mm
04:09 54.2 °F /  12.3 °C 53.1 °F /  11.7 °C 29.85 in /  1010.7 hPa SW 6.4 mph /  10.3 km/h 11.5 mph /  18.5 km/h 96 % 0.00 in /  0 mm
04:14 54.2 °F /  12.3 °C 53.1 °F /  11.7 °C 29.85 in /  1010.7 hPa SSW 2.8 mph /  4.5 km/h 3.5 mph /  5.6 km/h 96 % 0.00 in /  0 mm
04:19 54.2 °F /  12.3 °C 53.1 °F /  11.7 °C 29.84 in /  1010.4 hPa South 4.4 mph /  7.1 km/h 5.8 mph /  9.3 km/h 96 % 0.00 in /  0 mm
04:24 54.2 °F /  12.3 °C 53.1 °F /  11.7 °C 29.84 in /  1010.4 hPa SW 5.1 mph /  8.2 km/h 6.9 mph /  11.1 km/h 96 % 0.00 in /  0 mm
04:29 54.2 °F /  12.3 °C 53.1 °F /  11.7 °C 29.84 in /  1010.4 hPa South 2.8 mph /  4.5 km/h 4.0 mph /  6.4 km/h 96 % 0.00 in /  0 mm
04:34 54.1 °F /  12.3 °C 53.0 °F /  11.7 °C 29.84 in /  1010.4 hPa South 2.9 mph /  4.7 km/h 5.0 mph /  8 km/h 96 % 0.00 in /  0 mm
04:39 54.1 °F /  12.3 °C 53.0 °F /  11.7 °C 29.83 in /  1010 hPa SSW 4.0 mph /  6.4 km/h 7.0 mph /  11.3 km/h 96 % 0.00 in /  0 mm
04:44 54.0 °F /  12.2 °C 52.9 °F /  11.6 °C 29.83 in /  1010 hPa South 4.6 mph /  7.4 km/h 8.1 mph /  13 km/h 96 % 0.00 in /  0 mm
04:49 53.9 °F /  12.2 °C 52.8 °F /  11.6 °C 29.83 in /  1010 hPa SSW 2.7 mph /  4.3 km/h 6.9 mph /  11.1 km/h 96 % 0.00 in /  0 mm
04:54 53.9 °F /  12.2 °C 52.8 °F /  11.6 °C 29.83 in /  1010 hPa SSW 4.2 mph /  6.8 km/h 6.9 mph /  11.1 km/h 96 % 0.00 in /  0 mm
04:59 53.8 °F /  12.1 °C 52.7 °F /  11.5 °C 29.82 in /  1009.7 hPa SW 3.6 mph /  5.8 km/h 5.8 mph /  9.3 km/h 96 % 0.00 in /  0 mm
05:04 53.8 °F /  12.1 °C 52.7 °F /  11.5 °C 29.83 in /  1010 hPa South 2.2 mph /  3.5 km/h 3.5 mph /  5.6 km/h 96 % 0.00 in /  0 mm
05:09 53.7 °F /  12.1 °C 52.6 °F /  11.4 °C 29.83 in /  1010 hPa SSW 5.1 mph /  8.2 km/h 8.1 mph /  13 km/h 96 % 0.00 in /  0 mm
05:14 53.8 °F /  12.1 °C 52.7 °F /  11.5 °C 29.82 in /  1009.7 hPa SSW 2.6 mph /  4.2 km/h 5.8 mph /  9.3 km/h 96 % 0.00 in /  0 mm
05:19 53.8 °F /  12.1 °C 52.7 °F /  11.5 °C 29.82 in /  1009.7 hPa SSW 3.2 mph /  5.1 km/h 4.6 mph /  7.4 km/h 96 % 0.00 in /  0 mm
05:24 53.9 °F /  12.2 °C 52.8 °F /  11.6 °C 29.81 in /  1009.4 hPa SSW 4.7 mph /  7.6 km/h 6.9 mph /  11.1 km/h 96 % 0.00 in /  0 mm
05:30 53.9 °F /  12.2 °C 52.8 °F /  11.6 °C 29.81 in /  1009.4 hPa South 3.0 mph /  4.8 km/h 5.8 mph /  9.3 km/h 96 % 0.00 in /  0 mm
05:35 54.0 °F /  12.2 °C 52.9 °F /  11.6 °C 29.81 in /  1009.4 hPa South 2.0 mph /  3.2 km/h 4.6 mph /  7.4 km/h 96 % 0.00 in /  0 mm
05:40 54.0 °F /  12.2 °C 52.9 °F /  11.6 °C 29.81 in /  1009.4 hPa South 2.7 mph /  4.3 km/h 3.5 mph /  5.6 km/h 96 % 0.00 in /  0 mm
05:41 54.0 °F /  12.2 °C 52.9 °F /  11.6 °C 29.81 in /  1009.4 hPa South 1.4 mph /  2.3 km/h 4.6 mph /  7.4 km/h 96 % 0.00 in /  0 mm
05:46 54.0 °F /  12.2 °C 52.9 °F /  11.6 °C 29.80 in /  1009 hPa South 1.3 mph /  2.1 km/h 3.5 mph /  5.6 km/h 96 % 0.00 in /  0 mm
05:51 54.0 °F /  12.2 °C 52.9 °F /  11.6 °C 29.80 in /  1009 hPa SSE 1.6 mph /  2.6 km/h 3.5 mph /  5.6 km/h 96 % 0.00 in /  0 mm
05:56 53.9 °F /  12.2 °C 52.8 °F /  11.6 °C 29.80 in /  1009 hPa South 0.5 mph /  0.8 km/h 3.5 mph /  5.6 km/h 96 % 0.00 in /  0 mm
06:01 53.9 °F /  12.2 °C 52.8 °F /  11.6 °C 29.80 in /  1009 hPa South 1.4 mph /  2.3 km/h 3.5 mph /  5.6 km/h 96 % 0.00 in /  0 mm
06:06 53.9 °F /  12.2 °C 52.8 °F /  11.6 °C 29.80 in /  1009 hPa South 2.3 mph /  3.7 km/h 3.5 mph /  5.6 km/h 96 % 0.00 in /  0 mm
06:11 53.9 °F /  12.2 °C 52.8 °F /  11.6 °C 29.80 in /  1009 hPa South 0.4 mph /  0.6 km/h 3.0 mph /  4.8 km/h 96 % 0.00 in /  0 mm
06:16 53.8 °F /  12.1 °C 52.7 °F /  11.5 °C 29.79 in /  1008.7 hPa Calm   2.3 mph /  3.7 km/h 96 % 0.00 in /  0 mm
06:21 53.9 °F /  12.2 °C 52.8 °F /  11.6 °C 29.78 in /  1008.4 hPa South 0.4 mph /  0.6 km/h 1.2 mph /  1.9 km/h 96 % 0.00 in /  0 mm
06:26 53.9 °F /  12.2 °C 52.8 °F /  11.6 °C 29.77 in /  1008 hPa South 0.3 mph /  0.5 km/h 3.5 mph /  5.6 km/h 96 % 0.00 in /  0 mm
06:31 54.0 °F /  12.2 °C 52.9 °F /  11.6 °C 29.77 in /  1008 hPa South 0.6 mph /  1 km/h 2.3 mph /  3.7 km/h 96 % 0.00 in /  0 mm
06:36 54.0 °F /  12.2 °C 52.9 °F /  11.6 °C 29.76 in /  1007.7 hPa South 2.3 mph /  3.7 km/h 5.0 mph /  8 km/h 96 % 0.00 in /  0 mm
06:41 54.0 °F /  12.2 °C 52.9 °F /  11.6 °C 29.76 in /  1007.7 hPa South 1.7 mph /  2.7 km/h 3.5 mph /  5.6 km/h 96 % 0.00 in /  0 mm
06:46 54.2 °F /  12.3 °C 53.1 °F /  11.7 °C 29.76 in /  1007.7 hPa South 3.9 mph /  6.3 km/h 8.1 mph /  13 km/h 96 % 0.00 in /  0 mm
06:51 54.3 °F /  12.4 °C 53.5 °F /  11.9 °C 29.76 in /  1007.7 hPa SW 2.9 mph /  4.7 km/h 4.0 mph /  6.4 km/h 97 % 0.00 in /  0 mm
06:56 54.5 °F /  12.5 °C 53.7 °F /  12.1 °C 29.76 in /  1007.7 hPa SW 2.5 mph /  4 km/h 3.5 mph /  5.6 km/h 97 % 0.00 in /  0 mm
07:01 54.6 °F /  12.6 °C 53.8 °F /  12.1 °C 29.76 in /  1007.7 hPa South 0.8 mph /  1.3 km/h 3.5 mph /  5.6 km/h 97 % 0.00 in /  0 mm
07:06 54.7 °F /  12.6 °C 53.9 °F /  12.2 °C 29.76 in /  1007.7 hPa South 1.8 mph /  2.9 km/h 3.5 mph /  5.6 km/h 97 % 0.00 in /  0 mm
07:11 54.7 °F /  12.6 °C 53.9 °F /  12.2 °C 29.75 in /  1007.3 hPa South 2.2 mph /  3.5 km/h 5.8 mph /  9.3 km/h 97 % 0.00 in /  0 mm
07:17 54.7 °F /  12.6 °C 53.9 °F /  12.2 °C 29.75 in /  1007.3 hPa South 3.2 mph /  5.1 km/h 5.8 mph /  9.3 km/h 97 % 0.00 in /  0 mm
07:22 54.7 °F /  12.6 °C 53.9 °F /  12.2 °C 29.75 in /  1007.3 hPa SSW 1.8 mph /  2.9 km/h 4.6 mph /  7.4 km/h 97 % 0.00 in /  0 mm
07:27 54.6 °F /  12.6 °C 53.8 °F /  12.1 °C 29.75 in /  1007.3 hPa SSW 3.5 mph /  5.6 km/h 6.9 mph /  11.1 km/h 97 % 0.00 in /  0 mm
07:32 54.6 °F /  12.6 °C 53.5 °F /  11.9 °C 29.75 in /  1007.3 hPa SSW 3.8 mph /  6.1 km/h 4.6 mph /  7.4 km/h 96 % 0.00 in /  0 mm
07:37 54.5 °F /  12.5 °C 53.4 °F /  11.9 °C 29.74 in /  1007 hPa SSE 3.7 mph /  6 km/h 5.8 mph /  9.3 km/h 96 % 0.00 in /  0 mm
07:42 54.2 °F /  12.3 °C 53.1 °F /  11.7 °C 29.74 in /  1007 hPa South 2.9 mph /  4.7 km/h 4.6 mph /  7.4 km/h 96 % 0.00 in /  0 mm
07:47 54.1 °F /  12.3 °C 53.0 °F /  11.7 °C 29.75 in /  1007.3 hPa South 3.4 mph /  5.5 km/h 4.6 mph /  7.4 km/h 96 % 0.00 in /  0 mm
07:52 53.9 °F /  12.2 °C 52.8 °F /  11.6 °C 29.74 in /  1007 hPa South 2.3 mph /  3.7 km/h 6.9 mph /  11.1 km/h 96 % 0.00 in /  0 mm
07:57 53.7 °F /  12.1 °C 52.6 °F /  11.4 °C 29.73 in /  1006.7 hPa SSE 0.8 mph /  1.3 km/h 3.5 mph /  5.6 km/h 96 % 0.00 in /  0 mm
08:02 53.6 °F /  12 °C 52.5 °F /  11.4 °C 29.74 in /  1007 hPa SSE 2.2 mph /  3.5 km/h 3.5 mph /  5.6 km/h 96 % 0.00 in /  0 mm
08:07 53.5 °F /  11.9 °C 52.4 °F /  11.3 °C 29.73 in /  1006.7 hPa SE 0.4 mph /  0.6 km/h 3.5 mph /  5.6 km/h 96 % 0.00 in /  0 mm
08:12 53.3 °F /  11.8 °C 52.2 °F /  11.2 °C 29.73 in /  1006.7 hPa SSE 2.6 mph /  4.2 km/h 5.0 mph /  8 km/h 96 % 0.00 in /  0 mm
08:17 53.2 °F /  11.8 °C 52.1 °F /  11.2 °C 29.73 in /  1006.7 hPa SSE 0.9 mph /  1.4 km/h 3.0 mph /  4.8 km/h 96 % 0.00 in /  0 mm
08:22 53.2 °F /  11.8 °C 52.1 °F /  11.2 °C 29.73 in /  1006.7 hPa South 1.9 mph /  3.1 km/h 4.6 mph /  7.4 km/h 96 % 0.00 in /  0 mm
08:27 53.2 °F /  11.8 °C 52.1 °F /  11.2 °C 29.73 in /  1006.7 hPa South 0.5 mph /  0.8 km/h 3.5 mph /  5.6 km/h 96 % 0.00 in /  0 mm
08:32 53.3 °F /  11.8 °C 52.2 °F /  11.2 °C 29.72 in /  1006.3 hPa SSE 0.2 mph /  0.3 km/h 2.3 mph /  3.7 km/h 96 % 0.00 in /  0 mm
08:37 53.3 °F /  11.8 °C 52.2 °F /  11.2 °C 29.73 in /  1006.7 hPa South 1.0 mph /  1.6 km/h 3.5 mph /  5.6 km/h 96 % 0.00 in /  0 mm
08:42 53.3 °F /  11.8 °C 52.2 °F /  11.2 °C 29.73 in /  1006.7 hPa South 0.4 mph /  0.6 km/h 2.3 mph /  3.7 km/h 96 % 0.00 in /  0 mm
08:47 53.4 °F /  11.9 °C 52.3 °F /  11.3 °C 29.73 in /  1006.7 hPa Calm     96 % 0.00 in /  0 mm
08:52 53.5 °F /  11.9 °C 52.4 °F /  11.3 °C 29.72 in /  1006.3 hPa SSE 1.1 mph /  1.8 km/h 2.3 mph /  3.7 km/h 96 % 0.00 in /  0 mm
08:57 53.6 °F /  12 °C 52.5 °F /  11.4 °C 29.72 in /  1006.3 hPa SW 2.2 mph /  3.5 km/h 3.5 mph /  5.6 km/h 96 % 0.00 in /  0 mm
09:02 53.7 °F /  12.1 °C 52.9 °F /  11.6 °C 29.72 in /  1006.3 hPa SW 2.5 mph /  4 km/h 3.5 mph /  5.6 km/h 97 % 0.00 in /  0 mm
09:07 53.8 °F /  12.1 °C 53.0 °F /  11.7 °C 29.70 in /  1005.6 hPa SSE 2.6 mph /  4.2 km/h 6.9 mph /  11.1 km/h 97 % 0.00 in /  0 mm
09:12 53.8 °F /  12.1 °C 52.7 °F /  11.5 °C 29.70 in /  1005.6 hPa SSW 2.6 mph /  4.2 km/h 4.6 mph /  7.4 km/h 96 % 0.00 in /  0 mm
09:18 53.8 °F /  12.1 °C 52.7 °F /  11.5 °C 29.70 in /  1005.6 hPa SSE 0.3 mph /  0.5 km/h 2.0 mph /  3.2 km/h 96 % 0.00 in /  0 mm
09:23 53.7 °F /  12.1 °C 52.6 °F /  11.4 °C 29.69 in /  1005.3 hPa SSE 2.3 mph /  3.7 km/h 5.8 mph /  9.3 km/h 96 % 0.00 in /  0 mm
09:28 53.6 °F /  12 °C 52.5 °F /  11.4 °C 29.68 in /  1005 hPa ESE 0.2 mph /  0.3 km/h 2.3 mph /  3.7 km/h 96 % 0.00 in /  0 mm
09:33 53.6 °F /  12 °C 52.5 °F /  11.4 °C 29.68 in /  1005 hPa SSE 1.6 mph /  2.6 km/h 3.5 mph /  5.6 km/h 96 % 0.00 in /  0 mm
09:38 53.6 °F /  12 °C 52.5 °F /  11.4 °C 29.69 in /  1005.3 hPa SSE 0.2 mph /  0.3 km/h 1.2 mph /  1.9 km/h 96 % 0.00 in /  0 mm
09:43 53.5 °F /  11.9 °C 52.4 °F /  11.3 °C 29.69 in /  1005.3 hPa SSW 1.6 mph /  2.6 km/h 2.3 mph /  3.7 km/h 96 % 0.00 in /  0 mm
09:48 53.5 °F /  11.9 °C 52.4 °F /  11.3 °C 29.69 in /  1005.3 hPa Calm   1.2 mph /  1.9 km/h 96 % 0.00 in /  0 mm
09:53 53.5 °F /  11.9 °C 52.4 °F /  11.3 °C 29.69 in /  1005.3 hPa SSE 1.0 mph /  1.6 km/h 2.3 mph /  3.7 km/h 96 % 0.00 in /  0 mm
09:58 53.5 °F /  11.9 °C 52.4 °F /  11.3 °C 29.70 in /  1005.6 hPa South 0.5 mph /  0.8 km/h 2.3 mph /  3.7 km/h 96 % 0.00 in /  0 mm
10:03 53.5 °F /  11.9 °C 52.4 °F /  11.3 °C 29.70 in /  1005.6 hPa SW 0.1 mph /  0.2 km/h 3.5 mph /  5.6 km/h 96 % 0.00 in /  0 mm
10:08 53.6 °F /  12 °C 52.5 °F /  11.4 °C 29.70 in /  1005.6 hPa SW 4.9 mph /  7.9 km/h 5.0 mph /  8 km/h 96 % 0.00 in /  0 mm
10:13 53.6 °F /  12 °C 52.5 °F /  11.4 °C 29.69 in /  1005.3 hPa SSW 2.4 mph /  3.9 km/h 4.6 mph /  7.4 km/h 96 % 0.00 in /  0 mm
10:18 53.7 °F /  12.1 °C 52.6 °F /  11.4 °C 29.68 in /  1005 hPa SW 1.0 mph /  1.6 km/h 4.0 mph /  6.4 km/h 96 % 0.00 in /  0 mm
10:23 53.7 °F /  12.1 °C 52.6 °F /  11.4 °C 29.67 in /  1004.6 hPa WSW 1.0 mph /  1.6 km/h 3.0 mph /  4.8 km/h 96 % 0.00 in /  0 mm
10:28 53.7 °F /  12.1 °C 52.6 °F /  11.4 °C 29.67 in /  1004.6 hPa WSW 0.1 mph /  0.2 km/h 2.3 mph /  3.7 km/h 96 % 0.00 in /  0 mm
10:33 53.7 °F /  12.1 °C 52.6 °F /  11.4 °C 29.67 in /  1004.6 hPa WSW 1.0 mph /  1.6 km/h 3.0 mph /  4.8 km/h 96 % 0.00 in /  0 mm
10:38 53.8 °F /  12.1 °C 52.7 °F /  11.5 °C 29.67 in /  1004.6 hPa Calm   3.0 mph /  4.8 km/h 96 % 0.00 in /  0 mm
10:43 53.8 °F /  12.1 °C 52.7 °F /  11.5 °C 29.69 in /  1005.3 hPa WSW 2.0 mph /  3.2 km/h 5.0 mph /  8 km/h 96 % 0.00 in /  0 mm
10:48 53.8 °F /  12.1 °C 52.7 °F /  11.5 °C 29.68 in /  1005 hPa WSW 1.0 mph /  1.6 km/h 5.0 mph /  8 km/h 96 % 0.00 in /  0 mm
10:53 53.8 °F /  12.1 °C 52.7 °F /  11.5 °C 29.68 in /  1005 hPa SW 1.0 mph /  1.6 km/h 4.0 mph /  6.4 km/h 96 % 0.00 in /  0 mm
10:58 53.8 °F /  12.1 °C 52.7 °F /  11.5 °C 29.67 in /  1004.6 hPa WSW 0.6 mph /  1 km/h 4.6 mph /  7.4 km/h 96 % 0.00 in /  0 mm
11:03 53.8 °F /  12.1 °C 52.7 °F /  11.5 °C 29.67 in /  1004.6 hPa WSW 0.5 mph /  0.8 km/h 2.3 mph /  3.7 km/h 96 % 0.00 in /  0 mm
11:08 53.9 °F /  12.2 °C 52.8 °F /  11.6 °C 29.67 in /  1004.6 hPa SW 0.2 mph /  0.3 km/h 1.2 mph /  1.9 km/h 96 % 0.00 in /  0 mm
11:09 53.9 °F /  12.2 °C 52.8 °F /  11.6 °C 29.67 in /  1004.6 hPa SW 0.7 mph /  1.1 km/h 3.5 mph /  5.6 km/h 96 % 0.00 in /  0 mm
11:14 54.1 °F /  12.3 °C 53.0 °F /  11.7 °C 29.67 in /  1004.6 hPa South 0.7 mph /  1.1 km/h 2.3 mph /  3.7 km/h 96 % 0.00 in /  0 mm
11:19 54.3 °F /  12.4 °C 53.2 °F /  11.8 °C 29.67 in /  1004.6 hPa South 2.4 mph /  3.9 km/h 3.5 mph /  5.6 km/h 96 % 0.00 in /  0 mm
11:24 54.5 °F /  12.5 °C 53.4 °F /  11.9 °C 29.67 in /  1004.6 hPa SSW 5.5 mph /  8.9 km/h 10.4 mph /  16.7 km/h 96 % 0.00 in /  0 mm
11:26 54.6 °F /  12.6 °C 53.5 °F /  11.9 °C 29.67 in /  1004.6 hPa SSW 5.3 mph /  8.5 km/h 10.0 mph /  16.1 km/h 96 % 0.00 in /  0 mm
11:31 54.6 °F /  12.6 °C 53.5 °F /  11.9 °C 29.66 in /  1004.3 hPa SW 0.7 mph /  1.1 km/h 3.0 mph /  4.8 km/h 96 % 0.00 in /  0 mm
11:36 54.7 °F /  12.6 °C 53.6 °F /  12 °C 29.65 in /  1003.9 hPa SW 3.1 mph /  5 km/h 4.6 mph /  7.4 km/h 96 % 0.01 in /  0.25 mm
11:41 54.8 °F /  12.7 °C 53.7 °F /  12.1 °C 29.65 in /  1003.9 hPa SSW 2.5 mph /  4 km/h 3.5 mph /  5.6 km/h 96 % 0.01 in /  0.25 mm
11:46 54.9 °F /  12.7 °C 53.8 °F /  12.1 °C 29.65 in /  1003.9 hPa SSW 3.6 mph /  5.8 km/h 3.6 mph /  5.8 km/h 96 % 0.01 in /  0.25 mm
11:51 55.0 °F /  12.8 °C 53.9 °F /  12.2 °C 29.65 in /  1003.9 hPa SSW 2.7 mph /  4.3 km/h 4.6 mph /  7.4 km/h 96 % 0.01 in /  0.25 mm
11:56 55.0 °F /  12.8 °C 53.9 °F /  12.2 °C 29.63 in /  1003.3 hPa SSE 1.0 mph /  1.6 km/h 2.3 mph /  3.7 km/h 96 % 0.01 in /  0.25 mm
12:01 55.0 °F /  12.8 °C 53.9 °F /  12.2 °C 29.61 in /  1002.6 hPa South 0.4 mph /  0.6 km/h 3.5 mph /  5.6 km/h 96 % 0.01 in /  0.25 mm
12:06 55.2 °F /  12.9 °C 54.1 °F /  12.3 °C 29.61 in /  1002.6 hPa SW 1.6 mph /  2.6 km/h 3.5 mph /  5.6 km/h 96 % 0.02 in /  0.51 mm
12:08 55.2 °F /  12.9 °C 54.1 °F /  12.3 °C 29.62 in /  1002.9 hPa SSW 1.7 mph /  2.7 km/h 2.3 mph /  3.7 km/h 96 % 0.02 in /  0.51 mm
12:13 55.3 °F /  12.9 °C 54.2 °F /  12.3 °C 29.61 in /  1002.6 hPa SW 0.6 mph /  1 km/h 3.5 mph /  5.6 km/h 96 % 0.02 in /  0.51 mm
12:18 55.5 °F /  13.1 °C 54.3 °F /  12.4 °C 29.60 in /  1002.3 hPa SW 1.0 mph /  1.6 km/h 3.0 mph /  4.8 km/h 96 % 0.00 in /  0 mm
12:23 55.7 °F /  13.2 °C 54.8 °F /  12.7 °C 29.57 in /  1001.2 hPa SSW 2.0 mph /  3.2 km/h 5.0 mph /  8 km/h 97 % 0.00 in /  0 mm
12:28 55.9 °F /  13.3 °C 55.1 °F /  12.8 °C 29.56 in /  1000.9 hPa South 1.0 mph /  1.6 km/h 5.0 mph /  8 km/h 97 % 0.00 in /  0 mm
12:33 56.2 °F /  13.4 °C 55.4 °F /  13 °C 29.57 in /  1001.2 hPa South 3.0 mph /  4.8 km/h 4.6 mph /  7.4 km/h 97 % 0.03 in /  0.76 mm
12:43 56.4 °F /  13.6 °C 55.6 °F /  13.1 °C 29.56 in /  1000.9 hPa South 2.0 mph /  3.2 km/h 9.0 mph /  14.5 km/h 97 % 0.00 in /  0 mm
12:48 56.3 °F /  13.5 °C 55.5 °F /  13.1 °C 29.57 in /  1001.2 hPa South 2.0 mph /  3.2 km/h 6.0 mph /  9.7 km/h 97 % 0.00 in /  0 mm
12:53 56.4 °F /  13.6 °C 55.6 °F /  13.1 °C 29.56 in /  1000.9 hPa South 2.9 mph /  4.7 km/h 3.5 mph /  5.6 km/h 97 % 0.02 in /  0.51 mm
12:54 56.4 °F /  13.6 °C 55.6 °F /  13.1 °C 29.56 in /  1000.9 hPa South 2.7 mph /  4.3 km/h 5.0 mph /  8 km/h 97 % 0.02 in /  0.51 mm
12:59 56.5 °F /  13.6 °C 55.7 °F /  13.2 °C 29.56 in /  1000.9 hPa SSW 2.7 mph /  4.3 km/h 7.0 mph /  11.3 km/h 97 % 0.02 in /  0.51 mm
13:05 56.8 °F /  13.8 °C 56.0 °F /  13.3 °C 29.55 in /  1000.6 hPa South 3.4 mph /  5.5 km/h 6.9 mph /  11.1 km/h 97 % 0.01 in /  0.25 mm
13:10 57.4 °F /  14.1 °C 56.6 °F /  13.7 °C 29.55 in /  1000.6 hPa South 3.0 mph /  4.8 km/h 4.6 mph /  7.4 km/h 97 % 0.01 in /  0.25 mm
13:15 57.8 °F /  14.3 °C 57.0 °F /  13.9 °C 29.54 in /  1000.2 hPa SSW 3.0 mph /  4.8 km/h 6.0 mph /  9.7 km/h 97 % 0.01 in /  0.25 mm
13:20 58.2 °F /  14.6 °C 57.4 °F /  14.1 °C 29.54 in /  1000.2 hPa South 3.8 mph /  6.1 km/h 6.9 mph /  11.1 km/h 97 % 0.01 in /  0.25 mm
13:25 58.5 °F /  14.7 °C 57.7 °F /  14.3 °C 29.53 in /  999.9 hPa South 4.3 mph /  6.9 km/h 6.9 mph /  11.1 km/h 97 % 0.01 in /  0.25 mm
13:30 59.3 °F /  15.2 °C 58.4 °F /  14.7 °C 29.53 in /  999.9 hPa South 2.2 mph /  3.5 km/h 5.8 mph /  9.3 km/h 97 % 0.01 in /  0.25 mm
13:35 59.3 °F /  15.2 °C 57.9 °F /  14.4 °C 29.52 in /  999.5 hPa South 5.7 mph /  9.2 km/h 11.5 mph /  18.5 km/h 95 % 0.00 in /  0 mm
13:40 59.4 °F /  15.2 °C 57.7 °F /  14.3 °C 29.52 in /  999.5 hPa SSE 5.7 mph /  9.2 km/h 11.5 mph /  18.5 km/h 94 % 0.00 in /  0 mm
13:45 59.6 °F /  15.3 °C 57.6 °F /  14.2 °C 29.51 in /  999.2 hPa South 6.2 mph /  10 km/h 11.5 mph /  18.5 km/h 93 % 0.00 in /  0 mm
13:50 59.7 °F /  15.4 °C 57.4 °F /  14.1 °C 29.51 in /  999.2 hPa SSW 6.1 mph /  9.8 km/h 10.4 mph /  16.7 km/h 92 % 0.00 in /  0 mm
13:55 59.7 °F /  15.4 °C 57.1 °F /  13.9 °C 29.51 in /  999.2 hPa South 6.9 mph /  11.1 km/h 11.5 mph /  18.5 km/h 91 % 0.00 in /  0 mm
14:00 59.6 °F /  15.3 °C 57.0 °F /  13.9 °C 29.51 in /  999.2 hPa SSW 8.0 mph /  12.9 km/h 13.8 mph /  22.2 km/h 91 % 0.00 in /  0 mm
14:06 59.5 °F /  15.3 °C 56.9 °F /  13.8 °C 29.51 in /  999.2 hPa South 4.6 mph /  7.4 km/h 6.0 mph /  9.7 km/h 91 % 0.00 in /  0 mm
14:08 59.5 °F /  15.3 °C 56.9 °F /  13.8 °C 29.51 in /  999.2 hPa South 7.0 mph /  11.3 km/h 16.0 mph /  25.7 km/h 91 % 0.00 in /  0 mm
14:13 59.7 °F /  15.4 °C 57.1 °F /  13.9 °C 29.51 in /  999.2 hPa SSW 5.0 mph /  8 km/h 12.0 mph /  19.3 km/h 91 % 0.00 in /  0 mm
14:18 59.7 °F /  15.4 °C 57.0 °F /  13.9 °C 29.51 in /  999.2 hPa SSW 5.0 mph /  8 km/h 10.0 mph /  16.1 km/h 91 % 0.00 in /  0 mm
14:23 59.6 °F /  15.3 °C 57.0 °F /  13.9 °C 29.51 in /  999.2 hPa SSW 5.0 mph /  8 km/h 12.0 mph /  19.3 km/h 91 % 0.00 in /  0 mm
14:28 59.6 °F /  15.3 °C 57.0 °F /  13.9 °C 29.51 in /  999.2 hPa SSW 7.0 mph /  11.3 km/h 13.0 mph /  20.9 km/h 91 % 0.00 in /  0 mm
14:33 59.4 °F /  15.2 °C 56.8 °F /  13.8 °C 29.50 in /  998.9 hPa SW 5.0 mph /  8 km/h 9.2 mph /  14.8 km/h 91 % 0.00 in /  0 mm
14:38 59.4 °F /  15.2 °C 56.8 °F /  13.8 °C 29.50 in /  998.9 hPa SSW 3.0 mph /  4.8 km/h 12.0 mph /  19.3 km/h 91 % 0.00 in /  0 mm
14:43 59.5 °F /  15.3 °C 56.9 °F /  13.8 °C 29.49 in /  998.5 hPa SSW 5.6 mph /  9 km/h 8.1 mph /  13 km/h 91 % 0.00 in /  0 mm
14:48 59.6 °F /  15.3 °C 57.0 °F /  13.9 °C 29.49 in /  998.5 hPa South 6.0 mph /  9.7 km/h 10.0 mph /  16.1 km/h 91 % 0.00 in /  0 mm
14:53 59.7 °F /  15.4 °C 56.8 °F /  13.8 °C 29.49 in /  998.5 hPa SSW 3.6 mph /  5.8 km/h 10.4 mph /  16.7 km/h 90 % 0.00 in /  0 mm
14:58 59.8 °F /  15.4 °C 56.9 °F /  13.8 °C 29.48 in /  998.2 hPa SSW 3.4 mph /  5.5 km/h 9.2 mph /  14.8 km/h 90 % 0.00 in /  0 mm
15:03 60.0 °F /  15.6 °C 57.1 °F /  13.9 °C 29.48 in /  998.2 hPa SW 5.8 mph /  9.3 km/h 9.2 mph /  14.8 km/h 90 % 0.00 in /  0 mm
15:08 60.2 °F /  15.7 °C 57.3 °F /  14.1 °C 29.48 in /  998.2 hPa South 7.8 mph /  12.6 km/h 11.5 mph /  18.5 km/h 90 % 0.00 in /  0 mm
15:13 60.4 °F /  15.8 °C 57.5 °F /  14.2 °C 29.48 in /  998.2 hPa SSW 3.7 mph /  6 km/h 6.9 mph /  11.1 km/h 90 % 0.00 in /  0 mm
15:18 60.8 °F /  16 °C 57.5 °F /  14.2 °C 29.48 in /  998.2 hPa SSW 7.3 mph /  11.7 km/h 11.5 mph /  18.5 km/h 89 % 0.00 in /  0 mm
15:23 61.1 °F /  16.2 °C 57.5 °F /  14.2 °C 29.48 in /  998.2 hPa SW 6.7 mph /  10.8 km/h 13.8 mph /  22.2 km/h 88 % 0.00 in /  0 mm
15:28 61.2 °F /  16.2 °C 57.6 °F /  14.2 °C 29.48 in /  998.2 hPa SW 3.5 mph /  5.6 km/h 9.2 mph /  14.8 km/h 88 % 0.00 in /  0 mm
15:33 61.4 °F /  16.3 °C 57.8 °F /  14.3 °C 29.48 in /  998.2 hPa SSW 9.1 mph /  14.6 km/h 14.0 mph /  22.5 km/h 88 % 0.00 in /  0 mm
15:38 61.6 °F /  16.4 °C 57.7 °F /  14.3 °C 29.48 in /  998.2 hPa SW 8.3 mph /  13.4 km/h 11.5 mph /  18.5 km/h 87 % 0.00 in /  0 mm
15:43 61.7 °F /  16.5 °C 57.8 °F /  14.3 °C 29.48 in /  998.2 hPa SSW 5.3 mph /  8.5 km/h 10.4 mph /  16.7 km/h 87 % 0.00 in /  0 mm
15:49 61.9 °F /  16.6 °C 58.0 °F /  14.4 °C 29.48 in /  998.2 hPa SSW 6.8 mph /  10.9 km/h 10.0 mph /  16.1 km/h 87 % 0.00 in /  0 mm
15:54 62.0 °F /  16.7 °C 58.1 °F /  14.5 °C 29.48 in /  998.2 hPa SSW 4.8 mph /  7.7 km/h 8.1 mph /  13 km/h 87 % 0.00 in /  0 mm
15:59 62.0 °F /  16.7 °C 57.8 °F /  14.3 °C 29.47 in /  997.9 hPa South 2.0 mph /  3.2 km/h 9.2 mph /  14.8 km/h 86 % 0.00 in /  0 mm
16:04 62.0 °F /  16.7 °C 57.8 °F /  14.3 °C 29.46 in /  997.5 hPa South 5.1 mph /  8.2 km/h 10.0 mph /  16.1 km/h 86 % 0.00 in /  0 mm
16:09 62.0 °F /  16.7 °C 57.8 °F /  14.3 °C 29.46 in /  997.5 hPa SSW 3.2 mph /  5.1 km/h 7.0 mph /  11.3 km/h 86 % 0.00 in /  0 mm
16:14 61.9 °F /  16.6 °C 57.7 °F /  14.3 °C 29.45 in /  997.2 hPa South 5.4 mph /  8.7 km/h 9.2 mph /  14.8 km/h 86 % 0.00 in /  0 mm
16:19 61.8 °F /  16.6 °C 57.6 °F /  14.2 °C 29.43 in /  996.5 hPa South 5.5 mph /  8.9 km/h 11.5 mph /  18.5 km/h 86 % 0.00 in /  0 mm
16:24 61.5 °F /  16.4 °C 56.9 °F /  13.8 °C 29.40 in /  995.5 hPa South 5.8 mph /  9.3 km/h 10.4 mph /  16.7 km/h 85 % 0.00 in /  0 mm
16:29 61.3 °F /  16.3 °C 57.1 °F /  13.9 °C 29.42 in /  996.2 hPa SSW 7.3 mph /  11.7 km/h 13.8 mph /  22.2 km/h 86 % 0.00 in /  0 mm
16:34 61.1 °F /  16.2 °C 56.9 °F /  13.8 °C 29.40 in /  995.5 hPa SSW 6.7 mph /  10.8 km/h 9.2 mph /  14.8 km/h 86 % 0.00 in /  0 mm
16:39 60.7 °F /  15.9 °C 56.5 °F /  13.6 °C 29.39 in /  995.1 hPa SSW 5.5 mph /  8.9 km/h 9.2 mph /  14.8 km/h 86 % 0.00 in /  0 mm
16:44 60.3 °F /  15.7 °C 56.1 °F /  13.4 °C 29.39 in /  995.1 hPa South 7.0 mph /  11.3 km/h 10.4 mph /  16.7 km/h 86 % 0.00 in /  0 mm
16:49 60.0 °F /  15.6 °C 55.8 °F /  13.2 °C 29.39 in /  995.1 hPa South 8.5 mph /  13.7 km/h 12.7 mph /  20.4 km/h 86 % 0.00 in /  0 mm
16:54 59.6 °F /  15.3 °C 55.7 °F /  13.2 °C 29.39 in /  995.1 hPa SSW 6.1 mph /  9.8 km/h 13.8 mph /  22.2 km/h 87 % 0.00 in /  0 mm
17:00 59.3 °F /  15.2 °C 55.4 °F /  13 °C 29.39 in /  995.1 hPa SSW 6.7 mph /  10.8 km/h 11.5 mph /  18.5 km/h 87 % 0.00 in /  0 mm
17:05 59.2 °F /  15.1 °C 55.6 °F /  13.1 °C 29.39 in /  995.1 hPa SSW 8.8 mph /  14.2 km/h 12.7 mph /  20.4 km/h 88 % 0.00 in /  0 mm
17:11 59.0 °F /  15 °C 55.4 °F /  13 °C 29.39 in /  995.1 hPa SW 7.5 mph /  12.1 km/h 11.5 mph /  18.5 km/h 88 % 0.00 in /  0 mm
17:16 58.8 °F /  14.9 °C 55.3 °F /  12.9 °C 29.40 in /  995.5 hPa South 5.8 mph /  9.3 km/h 12.7 mph /  20.4 km/h 88 % 0.00 in /  0 mm
17:21 58.6 °F /  14.8 °C 55.1 °F /  12.8 °C 29.40 in /  995.5 hPa SW 8.1 mph /  13 km/h 13.8 mph /  22.2 km/h 88 % 0.00 in /  0 mm
17:26 58.4 °F /  14.7 °C 55.2 °F /  12.9 °C 29.40 in /  995.5 hPa SSW 8.4 mph /  13.5 km/h 16.1 mph /  25.9 km/h 89 % 0.00 in /  0 mm
17:31 58.3 °F /  14.6 °C 55.1 °F /  12.8 °C 29.40 in /  995.5 hPa SSE 7.8 mph /  12.6 km/h 17.3 mph /  27.8 km/h 89 % 0.00 in /  0 mm
17:36 58.4 °F /  14.7 °C 55.5 °F /  13.1 °C 29.40 in /  995.5 hPa South 7.0 mph /  11.3 km/h 17.3 mph /  27.8 km/h 90 % 0.00 in /  0 mm
17:41 58.5 °F /  14.7 °C 55.6 °F /  13.1 °C 29.40 in /  995.5 hPa SW 8.7 mph /  14 km/h 15.0 mph /  24.1 km/h 90 % 0.00 in /  0 mm
17:47 58.7 °F /  14.8 °C 55.8 °F /  13.2 °C 29.40 in /  995.5 hPa South 6.6 mph /  10.6 km/h 11.5 mph /  18.5 km/h 90 % 0.00 in /  0 mm
17:52 58.7 °F /  14.8 °C 55.8 °F /  13.2 °C 29.40 in /  995.5 hPa SW 8.1 mph /  13 km/h 11.5 mph /  18.5 km/h 90 % 0.00 in /  0 mm
17:57 58.9 °F /  14.9 °C 56.0 °F /  13.3 °C 29.41 in /  995.8 hPa SSW 6.5 mph /  10.5 km/h 11.5 mph /  18.5 km/h 90 % 0.00 in /  0 mm
18:02 59.1 °F /  15.1 °C 56.2 °F /  13.4 °C 29.41 in /  995.8 hPa South 7.0 mph /  11.3 km/h 13.8 mph /  22.2 km/h 90 % 0.00 in /  0 mm
18:07 59.2 °F /  15.1 °C 56.3 °F /  13.5 °C 29.41 in /  995.8 hPa South 7.2 mph /  11.6 km/h 11.5 mph /  18.5 km/h 90 % 0.00 in /  0 mm
18:12 59.1 °F /  15.1 °C 55.9 °F /  13.3 °C 29.41 in /  995.8 hPa South 6.5 mph /  10.5 km/h 9.2 mph /  14.8 km/h 89 % 0.00 in /  0 mm
18:17 59.1 °F /  15.1 °C 55.9 °F /  13.3 °C 29.42 in /  996.2 hPa SSW 6.7 mph /  10.8 km/h 12.7 mph /  20.4 km/h 89 % 0.00 in /  0 mm
18:22 59.1 °F /  15.1 °C 55.9 °F /  13.3 °C 29.41 in /  995.8 hPa SSW 7.1 mph /  11.4 km/h 11.5 mph /  18.5 km/h 89 % 0.00 in /  0 mm
18:27 59.3 °F /  15.2 °C 56.1 °F /  13.4 °C 29.42 in /  996.2 hPa SSW 4.8 mph /  7.7 km/h 10.4 mph /  16.7 km/h 89 % 0.00 in /  0 mm
18:32 59.5 °F /  15.3 °C 55.9 °F /  13.3 °C 29.42 in /  996.2 hPa SSW 5.1 mph /  8.2 km/h 12.0 mph /  19.3 km/h 88 % 0.00 in /  0 mm
18:37 59.6 °F /  15.3 °C 56.0 °F /  13.3 °C 29.41 in /  995.8 hPa South 7.2 mph /  11.6 km/h 12.7 mph /  20.4 km/h 88 % 0.00 in /  0 mm
18:42 59.9 °F /  15.5 °C 56.3 °F /  13.5 °C 29.41 in /  995.8 hPa SSW 4.6 mph /  7.4 km/h 8.1 mph /  13 km/h 88 % 0.00 in /  0 mm
18:47 60.0 °F /  15.6 °C 56.1 °F /  13.4 °C 29.41 in /  995.8 hPa SSW 9.5 mph /  15.3 km/h 13.0 mph /  20.9 km/h 87 % 0.00 in /  0 mm
18:53 60.2 °F /  15.7 °C 56.0 °F /  13.3 °C 29.41 in /  995.8 hPa SSE 4.6 mph /  7.4 km/h 9.2 mph /  14.8 km/h 86 % 0.00 in /  0 mm
18:58 60.2 °F /  15.7 °C 56.0 °F /  13.3 °C 29.41 in /  995.8 hPa South 6.8 mph /  10.9 km/h 11.5 mph /  18.5 km/h 86 % 0.00 in /  0 mm
19:03 60.2 °F /  15.7 °C 56.0 °F /  13.3 °C 29.41 in /  995.8 hPa South 5.7 mph /  9.2 km/h 11.5 mph /  18.5 km/h 86 % 0.00 in /  0 mm
19:08 60.2 °F /  15.7 °C 56.0 °F /  13.3 °C 29.42 in /  996.2 hPa SSW 10.1 mph /  16.3 km/h 13.8 mph /  22.2 km/h 86 % 0.00 in /  0 mm
19:13 60.2 °F /  15.7 °C 56.0 °F /  13.3 °C 29.42 in /  996.2 hPa SSW 8.6 mph /  13.8 km/h 18.4 mph /  29.6 km/h 86 % 0.00 in /  0 mm
19:18 60.3 °F /  15.7 °C 55.8 °F /  13.2 °C 29.42 in /  996.2 hPa SW 9.2 mph /  14.8 km/h 15.0 mph /  24.1 km/h 85 % 0.00 in /  0 mm
19:23 60.4 °F /  15.8 °C 55.9 °F /  13.3 °C 29.42 in /  996.2 hPa South 7.0 mph /  11.3 km/h 14.0 mph /  22.5 km/h 85 % 0.00 in /  0 mm
19:28 60.4 °F /  15.8 °C 55.5 °F /  13.1 °C 29.42 in /  996.2 hPa South 6.0 mph /  9.7 km/h 12.0 mph /  19.3 km/h 84 % 0.00 in /  0 mm
19:33 60.5 °F /  15.8 °C 55.6 °F /  13.1 °C 29.43 in /  996.5 hPa SSW 7.0 mph /  11.3 km/h 12.0 mph /  19.3 km/h 84 % 0.00 in /  0 mm
19:38 60.5 °F /  15.8 °C 55.6 °F /  13.1 °C 29.42 in /  996.2 hPa SSW 3.0 mph /  4.8 km/h 13.0 mph /  20.9 km/h 84 % 0.00 in /  0 mm
19:43 60.5 °F /  15.8 °C 55.6 °F /  13.1 °C 29.42 in /  996.2 hPa SSW 5.0 mph /  8 km/h 9.0 mph /  14.5 km/h 84 % 0.00 in /  0 mm
19:48 60.5 °F /  15.8 °C 55.6 °F /  13.1 °C 29.41 in /  995.8 hPa SSW 4.8 mph /  7.7 km/h 11.5 mph /  18.5 km/h 84 % 0.00 in /  0 mm
19:53 60.5 °F /  15.8 °C 55.6 °F /  13.1 °C 29.42 in /  996.2 hPa SSW 3.0 mph /  4.8 km/h 8.0 mph /  12.9 km/h 84 % 0.00 in /  0 mm
19:58 60.4 °F /  15.8 °C 55.5 °F /  13.1 °C 29.43 in /  996.5 hPa South 5.3 mph /  8.5 km/h 9.2 mph /  14.8 km/h 84 % 0.00 in /  0 mm
20:03 60.2 °F /  15.7 °C 55.4 °F /  13 °C 29.42 in /  996.2 hPa South 6.0 mph /  9.7 km/h 12.0 mph /  19.3 km/h 84 % 0.00 in /  0 mm
20:08 60.0 °F /  15.6 °C 55.2 °F /  12.9 °C 29.42 in /  996.2 hPa SW 5.4 mph /  8.7 km/h 9.2 mph /  14.8 km/h 84 % 0.00 in /  0 mm
20:13 59.7 °F /  15.4 °C 54.9 °F /  12.7 °C 29.42 in /  996.2 hPa SSW 3.0 mph /  4.8 km/h 10.0 mph /  16.1 km/h 84 % 0.00 in /  0 mm
20:18 59.5 °F /  15.3 °C 54.3 °F /  12.4 °C 29.41 in /  995.8 hPa SSW 5.3 mph /  8.5 km/h 6.9 mph /  11.1 km/h 83 % 0.00 in /  0 mm
20:23 59.4 °F /  15.2 °C 54.2 °F /  12.3 °C 29.42 in /  996.2 hPa SSW 5.0 mph /  8 km/h 15.0 mph /  24.1 km/h 83 % 0.00 in /  0 mm
20:28 59.3 °F /  15.2 °C 53.8 °F /  12.1 °C 29.43 in /  996.5 hPa SSW 4.1 mph /  6.6 km/h 9.2 mph /  14.8 km/h 82 % 0.00 in /  0 mm
20:33 59.2 °F /  15.1 °C 53.7 °F /  12.1 °C 29.42 in /  996.2 hPa SSW 5.0 mph /  8 km/h 10.0 mph /  16.1 km/h 82 % 0.00 in /  0 mm
20:38 59.1 °F /  15.1 °C 53.6 °F /  12 °C 29.42 in /  996.2 hPa SSW 3.3 mph /  5.3 km/h 9.2 mph /  14.8 km/h 82 % 0.00 in /  0 mm
20:43 59.0 °F /  15 °C 53.5 °F /  11.9 °C 29.42 in /  996.2 hPa SSW 2.0 mph /  3.2 km/h 9.0 mph /  14.5 km/h 82 % 0.00 in /  0 mm
20:48 58.9 °F /  14.9 °C 53.8 °F /  12.1 °C 29.41 in /  995.8 hPa SSW 5.0 mph /  8 km/h 12.0 mph /  19.3 km/h 83 % 0.00 in /  0 mm
20:53 58.9 °F /  14.9 °C 53.7 °F /  12.1 °C 29.40 in /  995.5 hPa South 5.0 mph /  8 km/h 9.0 mph /  14.5 km/h 83 % 0.00 in /  0 mm
20:58 58.8 °F /  14.9 °C 53.6 °F /  12 °C 29.42 in /  996.2 hPa SSW 2.3 mph /  3.7 km/h 4.6 mph /  7.4 km/h 83 % 0.00 in /  0 mm
21:03 58.7 °F /  14.8 °C 53.5 °F /  11.9 °C 29.41 in /  995.8 hPa SSW 4.9 mph /  7.9 km/h 7.0 mph /  11.3 km/h 83 % 0.00 in /  0 mm
21:08 58.6 °F /  14.8 °C 53.5 °F /  11.9 °C 29.41 in /  995.8 hPa South 4.1 mph /  6.6 km/h 6.9 mph /  11.1 km/h 83 % 0.00 in /  0 mm
21:13 58.5 °F /  14.7 °C 53.4 °F /  11.9 °C 29.41 in /  995.8 hPa SSW 5.9 mph /  9.5 km/h 9.2 mph /  14.8 km/h 83 % 0.00 in /  0 mm
21:18 58.5 °F /  14.7 °C 53.4 °F /  11.9 °C 29.41 in /  995.8 hPa SSW 3.9 mph /  6.3 km/h 6.9 mph /  11.1 km/h 83 % 0.00 in /  0 mm
21:29 58.4 °F /  14.7 °C 53.3 °F /  11.8 °C 29.41 in /  995.8 hPa South 4.4 mph /  7.1 km/h 10.4 mph /  16.7 km/h 83 % 0.00 in /  0 mm
21:34 58.4 °F /  14.7 °C 53.3 °F /  11.8 °C 29.40 in /  995.5 hPa SSW 4.8 mph /  7.7 km/h 8.0 mph /  12.9 km/h 83 % 0.00 in /  0 mm
21:39 58.3 °F /  14.6 °C 52.8 °F /  11.6 °C 29.40 in /  995.5 hPa SSW 7.5 mph /  12.1 km/h 11.5 mph /  18.5 km/h 82 % 0.00 in /  0 mm
21:44 58.4 °F /  14.7 °C 52.9 °F /  11.6 °C 29.40 in /  995.5 hPa South 3.7 mph /  6 km/h 5.8 mph /  9.3 km/h 82 % 0.00 in /  0 mm
21:49 58.5 °F /  14.7 °C 53.0 °F /  11.7 °C 29.40 in /  995.5 hPa South 3.1 mph /  5 km/h 6.9 mph /  11.1 km/h 82 % 0.00 in /  0 mm
21:54 58.5 °F /  14.7 °C 53.0 °F /  11.7 °C 29.39 in /  995.1 hPa SSW 5.2 mph /  8.4 km/h 5.8 mph /  9.3 km/h 82 % 0.00 in /  0 mm
21:59 58.5 °F /  14.7 °C 52.7 °F /  11.5 °C 29.39 in /  995.1 hPa SSW 4.9 mph /  7.9 km/h 7.0 mph /  11.3 km/h 81 % 0.00 in /  0 mm
22:04 58.5 °F /  14.7 °C 52.7 °F /  11.5 °C 29.39 in /  995.1 hPa SW 2.8 mph /  4.5 km/h 8.1 mph /  13 km/h 81 % 0.00 in /  0 mm
22:09 58.4 °F /  14.7 °C 52.6 °F /  11.4 °C 29.38 in /  994.8 hPa SSW 3.0 mph /  4.8 km/h 5.8 mph /  9.3 km/h 81 % 0.00 in /  0 mm
22:14 58.2 °F /  14.6 °C 52.4 °F /  11.3 °C 29.38 in /  994.8 hPa SSW 2.3 mph /  3.7 km/h 11.5 mph /  18.5 km/h 81 % 0.00 in /  0 mm
22:19 58.2 °F /  14.6 °C 52.4 °F /  11.3 °C 29.38 in /  994.8 hPa SSW 4.8 mph /  7.7 km/h 8.1 mph /  13 km/h 81 % 0.00 in /  0 mm
22:24 58.2 °F /  14.6 °C 52.4 °F /  11.3 °C 29.38 in /  994.8 hPa SSE 4.5 mph /  7.2 km/h 8.1 mph /  13 km/h 81 % 0.00 in /  0 mm
22:29 58.2 °F /  14.6 °C 52.4 °F /  11.3 °C 29.38 in /  994.8 hPa WSW 3.3 mph /  5.3 km/h 6.0 mph /  9.7 km/h 81 % 0.00 in /  0 mm
22:34 58.2 °F /  14.6 °C 52.4 °F /  11.3 °C 29.39 in /  995.1 hPa SSW 5.8 mph /  9.3 km/h 9.2 mph /  14.8 km/h 81 % 0.00 in /  0 mm
22:40 58.2 °F /  14.6 °C 52.1 °F /  11.2 °C 29.39 in /  995.1 hPa South 3.3 mph /  5.3 km/h 6.9 mph /  11.1 km/h 80 % 0.00 in /  0 mm
22:45 58.2 °F /  14.6 °C 52.1 °F /  11.2 °C 29.39 in /  995.1 hPa SSW 5.4 mph /  8.7 km/h 9.2 mph /  14.8 km/h 80 % 0.00 in /  0 mm
22:50 58.1 °F /  14.5 °C 52.0 °F /  11.1 °C 29.39 in /  995.1 hPa South 4.9 mph /  7.9 km/h 5.8 mph /  9.3 km/h 80 % 0.00 in /  0 mm
22:55 58.0 °F /  14.4 °C 51.9 °F /  11.1 °C 29.39 in /  995.1 hPa SW 3.9 mph /  6.3 km/h 6.9 mph /  11.1 km/h 80 % 0.00 in /  0 mm
23:01 58.0 °F /  14.4 °C 51.9 °F /  11.1 °C 29.39 in /  995.1 hPa WSW 7.6 mph /  12.2 km/h 11.5 mph /  18.5 km/h 80 % 0.00 in /  0 mm
23:06 58.0 °F /  14.4 °C 51.5 °F /  10.8 °C 29.39 in /  995.1 hPa South 4.9 mph /  7.9 km/h 11.5 mph /  18.5 km/h 79 % 0.00 in /  0 mm
23:11 58.0 °F /  14.4 °C 51.5 °F /  10.8 °C 29.38 in /  994.8 hPa SW 5.2 mph /  8.4 km/h 9.2 mph /  14.8 km/h 79 % 0.00 in /  0 mm
23:16 57.9 °F /  14.4 °C 51.4 °F /  10.8 °C 29.38 in /  994.8 hPa SSW 6.8 mph /  10.9 km/h 11.5 mph /  18.5 km/h 79 % 0.00 in /  0 mm
23:21 57.9 °F /  14.4 °C 51.4 °F /  10.8 °C 29.38 in /  994.8 hPa SSW 4.7 mph /  7.6 km/h 9.2 mph /  14.8 km/h 79 % 0.00 in /  0 mm
23:26 58.0 °F /  14.4 °C 51.5 °F /  10.8 °C 29.38 in /  994.8 hPa South 6.5 mph /  10.5 km/h 11.5 mph /  18.5 km/h 79 % 0.00 in /  0 mm
23:31 58.1 °F /  14.5 °C 51.6 °F /  10.9 °C 29.37 in /  994.5 hPa SSW 6.5 mph /  10.5 km/h 9.2 mph /  14.8 km/h 79 % 0.00 in /  0 mm
23:36 58.2 °F /  14.6 °C 51.7 °F /  10.9 °C 29.38 in /  994.8 hPa SW 4.3 mph /  6.9 km/h 6.9 mph /  11.1 km/h 79 % 0.00 in /  0 mm
23:41 58.3 °F /  14.6 °C 51.5 °F /  10.8 °C 29.37 in /  994.5 hPa SSW 7.2 mph /  11.6 km/h 12.7 mph /  20.4 km/h 78 % 0.00 in /  0 mm
23:46 58.5 °F /  14.7 °C 51.7 °F /  10.9 °C 29.37 in /  994.5 hPa SW 3.3 mph /  5.3 km/h 10.4 mph /  16.7 km/h 78 % 0.00 in /  0 mm
23:51 58.7 °F /  14.8 °C 51.9 °F /  11.1 °C 29.37 in /  994.5 hPa SSW 9.7 mph /  15.6 km/h 16.1 mph /  25.9 km/h 78 % 0.00 in /  0 mm
23:56 59.0 °F /  15 °C 52.1 °F /  11.2 °C 29.37 in /  994.5 hPa SSE 2.0 mph /  3.2 km/h 10.4 mph /  16.7 km/h 78 % 0.00 in /  0 mm
Crab Meadow Weather
Compliments of Weather Underground - 3 mb

Script developed by  Jim McMurry - jmcmurry@mwt.net Adapted for the template by  Wim van der Kuil - Leuven-Template.eu

Extremes: The highest temperature ever recorded in the United States was 134 degrees F at Greenland Ranch in Death Valley, California.